Time;durP1;ratioP1;P1;durP2;ratioP2;P2;SDS_P1;SDS_P2;PMS_P1;PMS_P2;Temp;Humidity;BMP_temperature;BMP_pressure;BME280_temperature;BME280_humidity;BME280_pressure;Samples;Min_cycle;Max_cycle;Signal;HPM_P1;HPM_P2
2023/12/04 00:01:58;;;;;;;11.07;9.60;;;;;;;7.71;73.04;101304.78;5046506;28;20064;-76
2023/12/04 00:04:23;;;;;;;13.18;10.88;;;;;;;7.58;73.26;101292.13;5047551;28;20025;-77
2023/12/04 00:06:49;;;;;;;13.80;10.85;;;;;;;7.72;73.26;101314.56;5047534;28;20113;-77
2023/12/04 00:09:14;;;;;;;13.30;10.48;;;;;;;7.72;73.07;101304.72;5047892;28;20446;-77
2023/12/04 00:11:40;;;;;;;12.35;10.40;;;;;;;7.79;73.32;101310.59;5047684;28;20064;-77
2023/12/04 00:14:05;;;;;;;13.82;11.25;;;;;;;7.79;73.90;101297.19;5048065;28;20032;-77
2023/12/04 00:16:35;;;;;;;14.68;11.32;;;;;;;7.79;72.84;101290.03;5047357;28;20373;-77
2023/12/04 00:19:00;;;;;;;14.20;11.25;;;;;;;7.68;71.76;101282.63;5048110;28;20025;-78
2023/12/04 00:21:26;;;;;;;12.77;10.70;;;;;;;7.57;71.73;101305.63;5065660;28;20398;-77
2023/12/04 00:23:51;;;;;;;14.70;11.80;;;;;;;7.47;71.87;101291.91;5071156;28;20100;-78
2023/12/04 00:26:17;;;;;;;18.67;12.50;;;;;;;7.30;72.68;101308.06;5069385;28;20420;-78
2023/12/04 00:28:42;;;;;;;15.93;11.68;;;;;;;7.23;72.46;101333.44;5065473;28;20111;-77
2023/12/04 00:31:10;;;;;;;15.02;11.82;;;;;;;7.22;72.80;101350.44;5065102;28;20056;-76
2023/12/04 00:33:35;;;;;;;16.00;12.50;;;;;;;7.17;73.09;101343.63;5064728;28;20052;-77
2023/12/04 00:36:01;;;;;;;15.23;12.10;;;;;;;7.23;74.05;101370.91;5064804;28;20573;-78
2023/12/04 00:38:26;;;;;;;15.65;12.43;;;;;;;6.96;73.84;101334.97;5064929;28;20056;-76
2023/12/04 00:40:52;;;;;;;18.33;13.32;;;;;;;7.13;74.19;101380.38;5048286;28;20037;-77
2023/12/04 00:43:18;;;;;;;19.48;13.98;;;;;;;7.10;74.27;101376.06;5064703;28;20036;-76
2023/12/04 00:45:43;;;;;;;21.63;13.93;;;;;;;7.17;73.92;101403.34;5064621;28;20476;-76
2023/12/04 00:48:09;;;;;;;17.48;13.85;;;;;;;7.27;73.91;101399.22;5064777;28;20051;-76
2023/12/04 00:50:34;;;;;;;17.92;12.57;;;;;;;7.09;74.01;101355.59;5064474;28;20075;-77
2023/12/04 00:53:01;;;;;;;18.27;13.93;;;;;;;7.36;74.12;101368.41;5052114;28;20442;-77
2023/12/04 00:55:26;;;;;;;18.77;13.98;;;;;;;7.40;74.54;101365.44;5047456;28;20036;-76
2023/12/04 00:57:52;;;;;;;18.42;13.55;;;;;;;7.38;73.78;101367.38;5047588;28;20060;-77
2023/12/04 01:00:18;;;;;;;17.05;13.48;;;;;;;7.23;73.36;101354.84;5047170;28;20037;-76
2023/12/04 01:02:43;;;;;;;22.20;14.05;;;;;;;7.26;73.16;101360.03;5051119;28;20028;-76
2023/12/04 01:05:09;;;;;;;18.45;13.40;;;;;;;7.09;73.15;101368.13;5051174;28;20028;-75
2023/12/04 01:07:34;;;;;;;18.98;14.05;;;;;;;7.08;73.97;101366.41;5051300;28;20025;-76
2023/12/04 01:10:00;;;;;;;18.05;14.77;;;;;;;7.02;74.19;101372.09;5051401;28;20477;-76
2023/12/04 01:12:26;;;;;;;20.83;14.80;;;;;;;7.00;74.44;101364.13;5051255;28;20048;-77
2023/12/04 01:14:52;;;;;;;21.17;15.07;;;;;;;7.12;75.23;101371.47;5057385;28;20036;-77
2023/12/04 01:17:17;;;;;;;19.52;13.45;;;;;;;7.15;75.02;101383.84;5055414;28;20021;-77
2023/12/04 01:19:43;;;;;;;21.73;14.15;;;;;;;6.82;74.78;101343.75;5051244;28;20029;-78
2023/12/04 01:22:08;;;;;;;23.98;15.60;;;;;;;7.19;74.87;101390.72;5050649;28;20036;-77
2023/12/04 01:24:34;;;;;;;20.77;14.95;;;;;;;7.18;74.31;101398.88;5050639;28;20105;-77
2023/12/04 01:26:59;;;;;;;18.80;14.18;;;;;;;7.14;74.78;101414.22;5050786;28;20538;-76
2023/12/04 01:29:25;;;;;;;19.85;14.43;;;;;;;7.10;74.89;101429.56;5050762;28;20090;-76
2023/12/04 01:31:50;;;;;;;18.58;14.48;;;;;;;6.89;76.09;101424.50;5050441;28;20058;-77
2023/12/04 01:34:16;;;;;;;21.08;15.32;;;;;;;6.72;77.26;101438.78;5050541;28;20533;-75
2023/12/04 01:36:41;;;;;;;22.48;16.10;;;;;;;6.62;78.69;101452.69;5050729;28;20029;-76
2023/12/04 01:39:07;;;;;;;19.40;14.15;;;;;;;6.40;78.49;101448.44;5067600;28;20048;-76
2023/12/04 01:41:33;;;;;;;17.92;13.23;;;;;;;6.18;78.64;101421.09;5067739;28;20036;-76
2023/12/04 01:43:58;;;;;;;23.17;16.77;;;;;;;6.32;79.42;101445.31;5067462;28;20036;-76
2023/12/04 01:46:24;;;;;;;19.30;15.43;;;;;;;6.09;80.14;101420.69;5067327;28;20063;-77
2023/12/04 01:48:50;;;;;;;20.30;14.55;;;;;;;6.05;79.49;101436.03;5067776;28;20432;-76
2023/12/04 01:51:17;;;;;;;18.00;13.75;;;;;;;6.20;79.39;101445.94;5034179;28;20505;-76
2023/12/04 01:53:43;;;;;;;22.05;15.60;;;;;;;6.16;79.25;101471.06;5067372;28;20491;-77
2023/12/04 01:56:10;;;;;;;21.33;15.70;;;;;;;6.19;78.99;101462.91;5067290;28;20032;-77
2023/12/04 01:58:35;;;;;;;18.17;13.60;;;;;;;6.17;79.43;101478.13;5067944;28;20040;-75
2023/12/04 02:01:02;;;;;;;18.63;14.40;;;;;;;6.12;79.29;101485.50;5067879;28;20053;-77
2023/12/04 02:03:28;;;;;;;20.83;14.73;;;;;;;6.03;78.95;101492.16;5067858;28;20032;-76
2023/12/04 02:05:54;;;;;;;19.05;13.95;;;;;;;5.88;78.97;101492.91;5082358;28;20115;-77
2023/12/04 02:08:20;;;;;;;17.10;13.15;;;;;;;5.81;79.62;101458.56;5084505;28;20024;-76
2023/12/04 02:10:46;;;;;;;18.27;13.30;;;;;;;5.92;79.87;101498.97;5054509;28;20037;-76
2023/12/04 02:13:11;;;;;;;18.20;14.32;;;;;;;5.86;79.93;101493.91;5048637;28;20151;-76
2023/12/04 02:15:37;;;;;;;20.20;15.02;;;;;;;5.84;80.27;101485.09;5049689;28;20052;-75
2023/12/04 02:18:03;;;;;;;19.35;14.10;;;;;;;5.80;80.75;101489.72;5049931;28;20393;-75
2023/12/04 02:20:35;;;;;;;18.00;13.95;;;;;;;5.82;80.73;101476.28;5049842;28;20031;-77
2023/12/04 02:23:02;;;;;;;23.35;14.05;;;;;;;5.71;81.36;101458.13;5049418;28;20021;-77
2023/12/04 02:25:28;;;;;;;21.60;15.35;;;;;;;5.84;81.85;101469.09;5049531;28;20160;-76
2023/12/04 02:27:55;;;;;;;18.23;14.00;;;;;;;5.78;81.32;101488.06;5049297;28;20043;-76
2023/12/04 02:30:24;;;;;;;19.63;15.13;;;;;;;5.72;81.29;101485.69;5048177;28;20029;-76
2023/12/04 02:32:51;;;;;;;21.35;15.07;;;;;;;5.68;81.20;101505.44;5049152;28;20029;-76
2023/12/04 02:35:23;;;;;;;25.60;15.27;;;;;;;5.73;81.60;101524.75;5049630;28;20062;-76
2023/12/04 02:37:51;;;;;;;22.65;14.52;;;;;;;5.71;81.23;101530.19;5046739;28;20569;-76
2023/12/04 02:40:16;;;;;;;23.50;15.40;;;;;;;5.65;81.11;101546.50;5049594;28;20594;-76
2023/12/04 02:42:42;;;;;;;22.35;16.48;;;;;;;5.73;81.44;101546.97;5049051;28;20028;-76
2023/12/04 02:45:08;;;;;;;22.17;16.83;;;;;;;5.80;81.81;101548.44;5049162;28;20473;-76
2023/12/04 02:47:33;;;;;;;24.15;17.30;;;;;;;5.87;82.21;101570.41;5047867;28;20429;-75
2023/12/04 02:49:59;;;;;;;17.02;13.63;;;;;;;5.77;82.07;101569.06;5049029;28;20054;-76
2023/12/04 02:52:24;;;;;;;19.88;15.55;;;;;;;5.66;81.99;101568.69;5049393;28;20482;-76
2023/12/04 02:54:50;;;;;;;22.33;15.95;;;;;;;5.77;81.95;101569.06;5048564;28;20044;-77
2023/12/04 02:57:15;;;;;;;21.63;15.90;;;;;;;5.74;82.07;101555.88;5050903;28;20029;-76
2023/12/04 02:59:42;;;;;;;27.40;17.10;;;;;;;5.75;81.99;101566.44;5052917;28;20060;-75
2023/12/04 03:02:08;;;;;;;23.42;17.65;;;;;;;5.80;82.00;101571.59;5049960;28;20025;-75
2023/12/04 03:04:35;;;;;;;21.90;15.55;;;;;;;5.66;81.86;101550.88;5048595;28;20029;-77
2023/12/04 03:07:01;;;;;;;21.75;16.05;;;;;;;5.79;81.65;101570.72;5048580;28;20485;-76
2023/12/04 03:09:26;;;;;;;20.20;16.17;;;;;;;5.80;81.60;101558.25;5048528;28;20036;-76
2023/12/04 03:11:52;;;;;;;25.17;17.20;;;;;;;5.96;81.15;101569.97;5048316;28;20086;-76
2023/12/04 03:14:17;;;;;;;25.95;16.95;;;;;;;6.03;80.95;101577.59;5047214;28;20021;-76
2023/12/04 03:16:43;;;;;;;22.83;16.17;;;;;;;5.92;80.93;101563.03;5048505;28;20024;-77
2023/12/04 03:19:08;;;;;;;26.65;17.17;;;;;;;5.93;80.32;101578.97;5048447;28;20072;-77
2023/12/04 03:21:34;;;;;;;21.40;15.88;;;;;;;5.97;80.10;101569.88;5048253;28;20029;-77
2023/12/04 03:23:59;;;;;;;23.38;16.83;;;;;;;5.96;80.24;101564.63;5048074;28;20036;-77
2023/12/04 03:26:25;;;;;;;22.67;15.98;;;;;;;5.89;80.29;101533.81;5048580;28;20037;-77
2023/12/04 03:28:50;;;;;;;24.92;16.10;;;;;;;5.93;80.40;101538.09;5048163;28;20412;-76
2023/12/04 03:31:16;;;;;;;25.20;16.15;;;;;;;6.03;79.71;101566.06;5048284;28;20106;-75
2023/12/04 03:33:41;;;;;;;21.13;15.60;;;;;;;5.98;79.71;101563.63;5047935;28;20745;-76
2023/12/04 03:36:07;;;;;;;22.35;16.73;;;;;;;5.86;79.69;101574.88;5048227;28;20064;-76
2023/12/04 03:38:33;;;;;;;23.88;16.67;;;;;;;5.81;79.43;101584.84;5047954;28;20037;-76
2023/12/04 03:40:58;;;;;;;21.85;17.17;;;;;;;5.83;79.75;101584.78;5048118;28;20396;-75
2023/12/04 03:43:24;;;;;;;23.65;16.98;;;;;;;5.86;79.75;101585.56;5048259;28;20552;-75
2023/12/04 03:45:49;;;;;;;27.02;18.50;;;;;;;5.82;80.11;101583.06;5048122;28;20075;-77
2023/12/04 03:48:15;;;;;;;27.33;16.50;;;;;;;5.82;80.17;101599.94;5049618;28;20489;-75
2023/12/04 03:50:40;;;;;;;25.02;17.05;;;;;;;5.80;80.08;101596.50;5051674;28;20025;-75
2023/12/04 03:53:06;;;;;;;30.05;17.65;;;;;;;5.79;80.35;101608.09;5049044;28;20024;-78
2023/12/04 03:55:31;;;;;;;28.83;18.45;;;;;;;5.85;80.26;101609.59;5047854;28;20108;-76
2023/12/04 03:57:58;;;;;;;22.20;16.88;;;;;;;5.80;79.90;101606.28;5048009;28;20082;-75
2023/12/04 04:00:23;;;;;;;35.35;17.02;;;;;;;5.74;79.79;101618.13;5047797;28;20036;-76
2023/12/04 04:02:49;;;;;;;25.23;17.40;;;;;;;5.65;79.89;101623.00;5047994;28;20128;-78
2023/12/04 04:05:15;;;;;;;25.05;17.05;;;;;;;5.61;80.28;101632.06;5047342;28;20104;-76
2023/12/04 04:07:41;;;;;;;25.92;17.60;;;;;;;5.72;80.53;101632.47;5046275;28;20055;-76
2023/12/04 04:10:07;;;;;;;24.95;16.85;;;;;;;5.70;80.48;101631.66;5047576;28;20499;-76
2023/12/04 04:12:33;;;;;;;23.55;17.52;;;;;;;5.37;80.60;101602.03;5047975;28;20488;-76
2023/12/04 04:14:59;;;;;;;24.02;17.55;;;;;;;5.50;80.91;101635.25;5047026;28;20020;-76
2023/12/04 04:17:27;;;;;;;22.85;17.02;;;;;;;5.55;81.32;101643.03;5047185;28;20127;-75
2023/12/04 04:19:53;;;;;;;27.55;17.63;;;;;;;5.57;81.72;101641.16;5045780;28;20025;-76
2023/12/04 04:22:20;;;;;;;27.42;18.45;;;;;;;5.20;81.81;101583.25;5047214;28;20402;-77
2023/12/04 04:24:46;;;;;;;27.63;18.33;;;;;;;5.62;82.19;101640.03;5047194;28;20512;-76
2023/12/04 04:27:11;;;;;;;26.63;17.83;;;;;;;5.66;82.14;101635.38;5045018;28;20041;-76
2023/12/04 04:29:37;;;;;;;29.63;20.00;;;;;;;5.73;82.44;101639.53;5046111;28;20127;-76
2023/12/04 04:32:02;;;;;;;27.70;18.48;;;;;;;5.75;82.35;101643.03;5047782;28;20025;-76
2023/12/04 04:34:28;;;;;;;27.88;19.23;;;;;;;5.85;82.13;101637.22;5047789;28;20109;-76
2023/12/04 04:36:53;;;;;;;30.90;20.08;;;;;;;5.89;82.11;101633.47;5048081;28;20064;-76
2023/12/04 04:39:19;;;;;;;26.83;19.13;;;;;;;5.95;82.08;101626.97;5052652;28;20107;-77
2023/12/04 04:41:45;;;;;;;32.22;21.98;;;;;;;6.00;82.40;101633.81;5056202;28;20516;-76
2023/12/04 04:44:10;;;;;;;32.30;19.65;;;;;;;6.03;81.92;101627.47;5053488;28;20029;-75
2023/12/04 04:46:36;;;;;;;24.73;17.48;;;;;;;5.98;81.63;101626.84;5051615;28;20132;-76
2023/12/04 04:49:02;;;;;;;24.50;17.33;;;;;;;6.11;81.31;101644.03;5051191;28;20474;-77
2023/12/04 04:51:29;;;;;;;27.42;18.95;;;;;;;6.12;81.07;101645.75;5051095;28;20025;-75
2023/12/04 04:53:55;;;;;;;30.00;18.42;;;;;;;6.14;80.60;101651.03;5051158;28;20144;-76
2023/12/04 04:56:21;;;;;;;30.50;20.73;;;;;;;6.24;80.63;101650.50;5050986;28;20017;-76
2023/12/04 04:58:46;;;;;;;31.30;20.40;;;;;;;6.30;80.94;101655.56;5048719;28;20051;-77
2023/12/04 05:01:12;;;;;;;24.98;18.85;;;;;;;6.17;80.45;101641.06;5050881;28;20108;-76
2023/12/04 05:03:37;;;;;;;25.67;18.92;;;;;;;6.07;79.52;101647.75;5050967;28;20094;-77
2023/12/04 05:06:03;;;;;;;29.38;19.88;;;;;;;6.14;79.69;101654.56;5050171;28;20025;-76
2023/12/04 05:08:29;;;;;;;26.77;19.77;;;;;;;6.19;79.70;101663.22;5050902;28;20037;-75
2023/12/04 05:10:54;;;;;;;29.13;18.63;;;;;;;6.14;80.00;101646.56;5050499;28;20021;-75
2023/12/04 05:13:20;;;;;;;31.10;20.02;;;;;;;6.19;80.04;101657.88;5050776;28;20106;-76
2023/12/04 05:15:45;;;;;;;27.55;18.08;;;;;;;6.13;79.79;101655.50;5050841;28;20030;-76
2023/12/04 05:18:11;;;;;;;28.20;20.20;;;;;;;5.99;79.75;101652.59;5051208;28;20029;-76
2023/12/04 05:20:37;;;;;;;35.08;21.55;;;;;;;6.05;79.67;101660.34;5049261;28;20025;-77
2023/12/04 05:23:02;;;;;;;29.25;18.85;;;;;;;6.08;79.97;101660.19;5050726;28;20032;-76
2023/12/04 05:25:28;;;;;;;30.25;20.30;;;;;;;6.07;80.41;101668.25;5050256;28;20107;-76
2023/12/04 05:27:53;;;;;;;35.33;22.10;;;;;;;5.99;80.19;101664.13;5050911;28;20041;-76
2023/12/04 05:30:19;;;;;;;31.55;20.90;;;;;;;6.03;80.35;101672.88;5051435;28;20693;-76
2023/12/04 05:32:44;;;;;;;31.95;21.08;;;;;;;6.07;80.99;101654.91;5053735;28;20053;-76
2023/12/04 05:35:09;;;;;;;33.28;21.67;;;;;;;6.18;80.95;101663.28;5053388;28;20025;-79
2023/12/04 05:37:35;;;;;;;32.50;21.80;;;;;;;6.09;80.72;101645.88;5048913;28;20053;-75
2023/12/04 05:40:01;;;;;;;30.25;20.75;;;;;;;6.23;80.54;101654.13;5049996;28;20530;-76
2023/12/04 05:42:26;;;;;;;28.00;18.98;;;;;;;6.20;80.55;101659.63;5064421;28;20052;-74
2023/12/04 05:44:55;;;;;;;31.83;21.00;;;;;;;6.19;79.29;101673.91;5050175;28;21246;-74
2023/12/04 05:47:21;;;;;;;33.38;20.45;;;;;;;6.21;79.05;101677.34;5050114;28;20515;-76
2023/12/04 05:49:46;;;;;;;31.75;20.75;;;;;;;6.26;78.56;101670.03;5030982;28;20033;-76
2023/12/04 05:52:13;;;;;;;33.28;21.20;;;;;;;6.29;79.21;101664.53;5049959;28;20052;-76
2023/12/04 05:54:38;;;;;;;28.17;20.08;;;;;;;6.37;78.83;101665.03;5047810;28;20033;-75
2023/12/04 05:57:04;;;;;;;33.45;21.33;;;;;;;6.37;79.18;101659.69;5049872;28;20028;-75
2023/12/04 05:59:30;;;;;;;33.13;20.67;;;;;;;6.43;78.80;101664.72;5049894;28;20061;-75
2023/12/04 06:01:55;;;;;;;35.95;24.17;;;;;;;6.42;78.75;101676.34;5049817;28;20060;-75
2023/12/04 06:04:20;;;;;;;41.63;22.27;;;;;;;6.38;78.60;101656.06;5048271;28;20075;-76
2023/12/04 06:06:46;;;;;;;41.28;26.15;;;;;;;6.54;78.79;101673.09;5049679;28;20469;-75
2023/12/04 06:09:12;;;;;;;34.22;22.67;;;;;;;6.63;78.43;101671.81;5047421;28;20037;-76
2023/12/04 06:11:37;;;;;;;31.77;21.55;;;;;;;6.62;78.76;101659.38;5049966;28;20029;-75
2023/12/04 06:14:03;;;;;;;32.72;21.55;;;;;;;6.68;78.86;101677.78;5049863;28;20028;-74
2023/12/04 06:16:28;;;;;;;35.63;20.45;;;;;;;6.63;78.82;101674.47;5049611;28;20037;-74
2023/12/04 06:18:54;;;;;;;31.23;21.75;;;;;;;6.58;78.11;101677.34;5049325;28;20021;-77
2023/12/04 06:21:19;;;;;;;31.85;21.52;;;;;;;6.40;77.65;101650.66;5050140;28;20021;-74
2023/12/04 06:23:45;;;;;;;33.15;20.30;;;;;;;6.50;77.18;101681.34;5050922;28;20020;-76
2023/12/04 06:26:12;;;;;;;34.63;21.95;;;;;;;6.54;77.59;101682.94;5050796;28;20068;-75
2023/12/04 06:28:38;;;;;;;27.85;20.08;;;;;;;6.36;77.75;101679.31;5045999;28;20033;-77
2023/12/04 06:31:04;;;;;;;30.15;19.95;;;;;;;6.52;77.95;101699.03;5049884;28;20086;-74
2023/12/04 06:33:30;;;;;;;36.03;20.92;;;;;;;6.52;77.33;101692.81;5050147;28;20074;-76
2023/12/04 06:35:56;;;;;;;30.90;20.27;;;;;;;6.67;77.73;101707.25;5050357;28;20044;-76
2023/12/04 06:38:24;;;;;;;31.63;22.20;;;;;;;6.57;77.41;101713.03;5049986;28;20025;-75
2023/12/04 06:40:50;;;;;;;38.72;21.90;;;;;;;6.58;77.28;101698.75;5049865;28;20060;-76
2023/12/04 06:43:18;;;;;;;39.60;21.67;;;;;;;6.66;77.03;101705.53;5049358;28;20501;-76
2023/12/04 06:45:45;;;;;;;29.52;20.13;;;;;;;6.53;76.57;101731.97;5048924;28;20125;-76
2023/12/04 06:48:15;;;;;;;30.33;20.70;;;;;;;6.28;76.29;101734.91;5046796;28;20034;-76
2023/12/04 06:50:40;;;;;;;28.75;19.15;;;;;;;6.42;76.93;101742.31;5049215;28;20025;-74
2023/12/04 06:53:06;;;;;;;35.55;20.88;;;;;;;6.47;77.82;101738.47;5049221;28;20036;-76
2023/12/04 06:55:32;;;;;;;29.40;20.48;;;;;;;6.47;77.79;101742.94;5048606;28;20029;-76
2023/12/04 06:57:58;;;;;;;33.63;21.00;;;;;;;6.41;77.11;101733.41;5048721;28;20028;-75
2023/12/04 07:00:23;;;;;;;31.67;19.40;;;;;;;6.42;77.51;101744.97;5048341;28;20029;-76
2023/12/04 07:02:50;;;;;;;27.05;19.65;;;;;;;6.30;77.65;101719.66;5048679;28;20103;-77
2023/12/04 07:05:16;;;;;;;32.20;21.80;;;;;;;6.30;77.48;101746.38;5048715;28;20480;-76
2023/12/04 07:07:41;;;;;;;31.88;20.23;;;;;;;6.17;77.54;101734.56;5048732;28;20036;-77
2023/12/04 07:10:07;;;;;;;32.88;21.92;;;;;;;6.21;77.78;101745.97;5048801;28;20068;-77
2023/12/04 07:12:33;;;;;;;40.10;23.92;;;;;;;6.19;77.64;101742.47;5048884;28;20037;-77
2023/12/04 07:14:58;;;;;;;36.38;24.20;;;;;;;6.14;77.78;101744.50;5030295;28;20037;-77
2023/12/04 07:17:24;;;;;;;34.40;21.63;;;;;;;6.14;77.86;101740.03;5047599;28;20047;-77
2023/12/04 07:19:49;;;;;;;35.42;21.38;;;;;;;6.15;77.53;101747.09;5048256;28;20090;-77
2023/12/04 07:22:15;;;;;;;47.20;26.60;;;;;;;6.17;78.21;101742.56;5048575;28;20113;-77
2023/12/04 07:24:40;;;;;;;37.38;23.17;;;;;;;6.15;78.06;101747.09;5048275;28;20481;-76
2023/12/04 07:27:06;;;;;;;36.90;22.55;;;;;;;5.99;78.30;101724.69;5048461;28;20028;-76
2023/12/04 07:29:32;;;;;;;31.75;20.27;;;;;;;6.06;78.39;101736.81;5047939;28;20032;-77
2023/12/04 07:31:58;;;;;;;35.38;21.30;;;;;;;6.08;78.26;101745.66;5047880;28;20033;-76
2023/12/04 07:34:24;;;;;;;34.03;21.42;;;;;;;6.00;78.17;101751.31;5048018;28;20064;-76
2023/12/04 07:36:50;;;;;;;38.83;23.25;;;;;;;6.00;77.77;101754.00;5048313;28;20262;-77
2023/12/04 07:39:16;;;;;;;39.95;23.35;;;;;;;5.92;78.20;101760.63;5047917;28;20021;-78
2023/12/04 07:41:41;;;;;;;34.38;22.98;;;;;;;5.85;78.35;101751.09;5048231;28;20029;-77
2023/12/04 07:44:08;;;;;;;34.45;22.02;;;;;;;5.89;78.36;101766.97;5048217;28;20029;-78
2023/12/04 07:46:33;;;;;;;30.80;19.92;;;;;;;5.86;78.56;101759.09;5048120;28;20063;-77
2023/12/04 07:48:59;;;;;;;33.00;22.42;;;;;;;5.63;77.93;101732.47;5048215;28;20656;-77
2023/12/04 07:51:24;;;;;;;36.47;21.23;;;;;;;5.83;77.79;101767.19;5047989;28;20437;-77
2023/12/04 07:53:50;;;;;;;38.67;22.20;;;;;;;5.92;78.13;101766.81;5048038;28;20035;-77
2023/12/04 07:56:16;;;;;;;38.88;22.85;;;;;;;6.04;78.53;101757.41;5048062;28;20029;-77
2023/12/04 07:58:41;;;;;;;32.25;22.50;;;;;;;6.17;78.22;101777.28;5048288;28;20033;-77
2023/12/04 08:01:07;;;;;;;33.17;21.75;;;;;;;6.27;77.96;101767.06;5048293;28;20036;-78
2023/12/04 08:03:32;;;;;;;35.45;22.40;;;;;;;6.19;77.40;101735.34;5052667;28;20064;-78
2023/12/04 08:05:58;;;;;;;40.60;22.33;;;;;;;6.40;77.22;101763.75;5054535;28;20036;-78
2023/12/04 08:08:24;;;;;;;45.40;24.95;;;;;;;6.44;76.31;101780.50;5048422;28;20021;-76
2023/12/04 08:10:50;;;;;;;35.80;21.92;;;;;;;6.40;76.41;101770.88;5047067;28;20087;-78
2023/12/04 08:13:16;;;;;;;36.20;23.92;;;;;;;6.51;76.57;101774.78;5047562;28;20029;-77
2023/12/04 08:15:42;;;;;;;32.85;21.70;;;;;;;6.51;76.67;101785.47;5046378;28;20039;-78
2023/12/04 08:18:07;;;;;;;37.33;21.85;;;;;;;6.47;76.86;101777.69;5047386;28;20032;-78
2023/12/04 08:20:33;;;;;;;35.13;21.98;;;;;;;6.39;76.34;101775.34;5046365;28;20079;-78
2023/12/04 08:22:58;;;;;;;39.22;21.58;;;;;;;6.48;75.68;101784.78;5048151;28;20091;-77
2023/12/04 08:25:24;;;;;;;30.75;20.55;;;;;;;6.45;75.36;101775.06;5048091;28;20045;-78
2023/12/04 08:27:50;;;;;;;39.85;20.70;;;;;;;6.44;75.23;101786.72;5048013;28;20393;-77
2023/12/04 08:30:16;;;;;;;22.92;16.55;;;;;;;6.42;74.99;101793.09;5047827;28;20025;-78
2023/12/04 08:32:41;;;;;;;33.45;19.85;;;;;;;6.43;74.70;101787.66;5047618;28;20036;-78
2023/12/04 08:35:07;;;;;;;33.47;21.80;;;;;;;6.44;74.52;101792.06;5047534;28;20108;-76
2023/12/04 08:37:33;;;;;;;28.67;18.45;;;;;;;6.44;74.52;101791.19;5047590;28;20493;-77
2023/12/04 08:39:58;;;;;;;30.60;20.25;;;;;;;6.43;74.52;101790.31;5047495;28;20029;-77
2023/12/04 08:42:24;;;;;;;34.03;20.98;;;;;;;6.30;74.71;101777.59;5047550;28;20841;-77
2023/12/04 08:44:49;;;;;;;29.55;20.42;;;;;;;6.37;75.21;101795.94;5047847;28;20025;-77
2023/12/04 08:47:15;;;;;;;33.45;21.25;;;;;;;6.31;75.02;101776.66;5048288;28;20454;-77
2023/12/04 08:49:40;;;;;;;35.85;21.27;;;;;;;6.42;75.27;101780.56;5047989;28;20033;-77
2023/12/04 08:52:09;;;;;;;39.45;23.52;;;;;;;6.36;75.07;101766.63;5048048;28;20021;-77
2023/12/04 08:54:38;;;;;;;33.90;20.10;;;;;;;6.36;74.73;101785.34;5054772;28;20112;-78
2023/12/04 08:57:04;;;;;;;43.92;24.50;;;;;;;6.39;74.57;101783.38;5055329;28;20562;-78
2023/12/04 08:59:29;;;;;;;32.22;21.50;;;;;;;6.44;74.88;101775.16;5047496;28;20060;-77
2023/12/04 09:01:55;;;;;;;37.10;22.27;;;;;;;6.49;74.60;101779.34;5046936;28;20849;-77
2023/12/04 09:04:20;;;;;;;34.30;22.75;;;;;;;6.54;74.85;101784.50;5047788;28;20523;-78
2023/12/04 09:06:46;;;;;;;34.80;20.10;;;;;;;6.61;74.59;101777.91;5047449;28;20203;-79
2023/12/04 09:09:11;;;;;;;36.03;22.33;;;;;;;6.41;74.45;101765.47;5047045;28;20055;-77
2023/12/04 09:11:42;;;;;;;37.92;22.45;;;;;;;6.53;74.39;101758.69;5047288;28;20078;-78
2023/12/04 09:14:09;;;;;;;32.58;21.40;;;;;;;6.81;73.85;101780.53;5047012;28;20042;-78
2023/12/04 09:16:35;;;;;;;42.42;22.75;;;;;;;6.81;73.42;101775.19;5047466;28;20108;-77
2023/12/04 09:19:00;;;;;;;39.80;22.92;;;;;;;6.91;73.41;101784.47;5047514;28;20584;-78
2023/12/04 09:21:26;;;;;;;37.42;22.10;;;;;;;6.92;73.02;101763.97;5047471;28;20029;-77
2023/12/04 09:23:52;;;;;;;35.28;21.15;;;;;;;6.97;73.22;101778.00;5050310;28;20460;-76
2023/12/04 09:26:18;;;;;;;34.13;22.00;;;;;;;7.06;72.99;101775.72;5050587;28;20048;-78
2023/12/04 09:28:43;;;;;;;42.17;25.27;;;;;;;7.19;72.87;101775.13;5050680;28;20716;-77
2023/12/04 09:31:09;;;;;;;49.78;26.05;;;;;;;7.13;72.52;101761.09;5050415;28;20032;-78
2023/12/04 09:33:35;;;;;;;45.67;22.60;;;;;;;7.22;71.99;101754.44;5050428;28;20075;-77
2023/12/04 09:36:02;;;;;;;40.47;22.42;;;;;;;7.14;71.50;101753.97;5050778;28;20090;-77
2023/12/04 09:38:27;;;;;;;33.65;21.50;;;;;;;7.23;71.56;101772.22;5049868;28;20409;-78
2023/12/04 09:40:54;;;;;;;34.53;21.58;;;;;;;6.97;71.31;101767.28;5050747;28;20033;-77
2023/12/04 09:43:20;;;;;;;32.63;20.73;;;;;;;6.96;71.35;101770.91;5051338;28;20047;-78
2023/12/04 09:45:46;;;;;;;42.75;20.83;;;;;;;6.85;71.87;101767.88;5059054;28;20489;-78
2023/12/04 09:48:11;;;;;;;36.70;21.48;;;;;;;6.84;71.70;101769.69;5056553;28;20036;-77
2023/12/04 09:50:38;;;;;;;30.15;19.33;;;;;;;6.84;72.29;101775.03;5050334;28;20033;-78
2023/12/04 09:53:10;;;;;;;38.28;23.65;;;;;;;6.87;72.62;101763.31;5050122;28;20031;-78
2023/12/04 09:55:35;;;;;;;41.40;22.63;;;;;;;6.84;72.55;101759.00;5049991;28;20037;-79
2023/12/04 09:58:01;;;;;;;36.90;22.02;;;;;;;6.90;72.36;101755.16;5050115;28;20043;-78
2023/12/04 10:00:27;;;;;;;38.40;21.10;;;;;;;6.86;72.21;101749.06;5049723;28;20124;-78
2023/12/04 10:02:53;;;;;;;34.38;22.38;;;;;;;7.00;72.07;101748.44;5050383;28;20139;-77
2023/12/04 10:05:20;;;;;;;33.75;20.90;;;;;;;7.14;71.57;101751.28;5049674;28;20079;-77
2023/12/04 10:07:46;;;;;;;33.25;21.23;;;;;;;7.19;71.28;101749.22;5049916;28;20017;-77
2023/12/04 10:10:14;;;;;;;39.17;21.05;;;;;;;7.08;71.05;101724.84;5049889;28;20135;-78
2023/12/04 10:12:39;;;;;;;35.15;19.80;;;;;;;7.16;71.09;101743.16;5049655;28;20087;-77
2023/12/04 10:15:12;;;;;;;32.80;21.27;;;;;;;7.17;71.15;101740.44;5050059;28;20401;-77
2023/12/04 10:17:39;;;;;;;32.08;19.90;;;;;;;7.22;70.97;101733.03;5050090;28;20405;-77
2023/12/04 10:20:17;;;;;;;32.15;20.73;;;;;;;7.12;70.04;101742.47;5049645;28;20033;-78
2023/12/04 10:22:57;;;;;;;30.65;20.02;;;;;;;7.00;70.39;101729.69;5049572;28;20120;-77
2023/12/04 10:25:25;;;;;;;30.95;19.35;;;;;;;7.08;70.59;101731.06;5049939;28;20056;-77
2023/12/04 10:27:51;;;;;;;37.65;20.65;;;;;;;7.04;70.80;101741.97;5049700;28;20028;-77
2023/12/04 10:30:28;;;;;;;31.75;20.73;;;;;;;7.06;70.73;101738.25;5050341;28;20037;-77
2023/12/04 10:32:55;;;;;;;33.05;19.98;;;;;;;6.97;71.20;101717.31;5048979;28;20021;-77
2023/12/04 10:35:20;;;;;;;35.15;21.02;;;;;;;7.06;70.85;101748.97;5052689;28;20518;-76
2023/12/04 10:37:46;;;;;;;29.38;20.20;;;;;;;6.94;69.84;101744.22;5056744;28;20020;-78
2023/12/04 10:40:23;;;;;;;28.05;18.73;;;;;;;6.82;70.52;101746.66;5049806;28;20049;-77
2023/12/04 10:42:48;;;;;;;28.88;18.52;;;;;;;6.71;70.23;101757.84;5049087;28;20401;-76
2023/12/04 10:45:14;;;;;;;35.30;20.23;;;;;;;6.49;70.88;101725.03;5049315;28;20063;-77
2023/12/04 10:47:39;;;;;;;32.38;18.67;;;;;;;6.74;71.30;101751.47;5049126;28;20044;-76
2023/12/04 10:50:07;;;;;;;32.35;21.00;;;;;;;6.70;71.28;101736.50;5049245;28;20037;-78
2023/12/04 10:52:33;;;;;;;29.65;18.35;;;;;;;6.56;71.30;101722.00;5063278;28;20152;-76
2023/12/04 10:54:59;;;;;;;28.70;18.55;;;;;;;6.89;71.83;101761.44;5048752;28;20338;-76
2023/12/04 10:57:33;;;;;;;36.22;21.30;;;;;;;6.94;71.28;101754.91;5049066;28;20035;-77
2023/12/04 11:00:03;;;;;;;29.20;19.38;;;;;;;6.98;70.78;101747.59;5048684;28;20531;-77
2023/12/04 11:02:32;;;;;;;31.17;20.50;;;;;;;7.05;71.19;101752.59;5048792;28;20041;-77
2023/12/04 11:05:21;;;;;;;28.70;19.33;;;;;;;7.09;70.62;101748.81;5048907;28;20033;-78
2023/12/04 11:08:01;;;;;;;30.10;19.27;;;;;;;7.12;71.46;101748.66;5047549;28;20443;-77
2023/12/04 11:10:29;;;;;;;33.15;20.02;;;;;;;7.01;70.91;101744.78;5048866;28;20063;-78
2023/12/04 11:13:12;;;;;;;35.75;20.73;;;;;;;7.11;71.59;101740.72;5048564;28;20025;-76